Terminal Aerodrome Forecast
Issued by NWS Rapid City, SD

Home | Current Version | Previous Version | Text Only | Print | Product List | Glossary Off
Versions: 1 2 3 4 5 6 7 8 9 10 11 12 13

000
FTUS43 KUNR 180720 AAA
TAFRAP
TAF AMD
KRAP 180720Z 1807/1906 20010KT P6SM OVC250 WS020/27045KT
     FM181100 34020G30KT P6SM BKN250
     FM182000 02011KT P6SM FEW250
     FM190100 16008KT P6SM FEW250=

USA.gov is the U.S. government's official web portal to all federal, state and local government web resources and services.